sensor_id;sensor_type;location;lat;lon;timestamp;P1;durP1;ratioP1;P2;durP2;ratioP2
15526;SDS011;7865;50.918;4.510;2024-01-25T00:01:17;50.37;;;9.60;;
15526;SDS011;7865;50.918;4.510;2024-01-25T00:06:19;44.67;;;9.07;;
15526;SDS011;7865;50.918;4.510;2024-01-25T00:11:22;55.30;;;9.37;;
15526;SDS011;7865;50.918;4.510;2024-01-25T00:16:24;48.83;;;8.83;;
15526;SDS011;7865;50.918;4.510;2024-01-25T00:21:26;51.90;;;9.03;;
15526;SDS011;7865;50.918;4.510;2024-01-25T00:26:28;45.53;;;8.73;;
15526;SDS011;7865;50.918;4.510;2024-01-25T00:31:30;54.63;;;9.03;;
15526;SDS011;7865;50.918;4.510;2024-01-25T00:36:32;55.80;;;11.13;;
15526;SDS011;7865;50.918;4.510;2024-01-25T00:41:34;52.07;;;8.00;;
15526;SDS011;7865;50.918;4.510;2024-01-25T00:46:36;51.67;;;8.90;;
15526;SDS011;7865;50.918;4.510;2024-01-25T00:51:38;49.30;;;9.20;;
15526;SDS011;7865;50.918;4.510;2024-01-25T00:56:48;54.93;;;9.77;;
15526;SDS011;7865;50.918;4.510;2024-01-25T01:01:52;38.87;;;8.50;;
15526;SDS011;7865;50.918;4.510;2024-01-25T01:06:55;47.47;;;8.70;;
15526;SDS011;7865;50.918;4.510;2024-01-25T01:11:58;43.60;;;8.47;;
15526;SDS011;7865;50.918;4.510;2024-01-25T01:17:01;54.27;;;8.60;;
15526;SDS011;7865;50.918;4.510;2024-01-25T01:22:03;62.67;;;9.57;;
15526;SDS011;7865;50.918;4.510;2024-01-25T01:27:05;53.40;;;9.80;;
15526;SDS011;7865;50.918;4.510;2024-01-25T01:32:07;45.20;;;8.37;;
15526;SDS011;7865;50.918;4.510;2024-01-25T01:37:08;50.73;;;9.30;;
15526;SDS011;7865;50.918;4.510;2024-01-25T01:42:11;48.80;;;9.70;;
15526;SDS011;7865;50.918;4.510;2024-01-25T01:47:12;57.40;;;9.50;;
15526;SDS011;7865;50.918;4.510;2024-01-25T01:52:15;51.40;;;9.27;;
15526;SDS011;7865;50.918;4.510;2024-01-25T01:57:19;41.93;;;8.93;;
15526;SDS011;7865;50.918;4.510;2024-01-25T02:02:21;63.37;;;9.03;;
15526;SDS011;7865;50.918;4.510;2024-01-25T02:07:26;50.00;;;9.53;;
15526;SDS011;7865;50.918;4.510;2024-01-25T02:12:28;53.97;;;8.70;;
15526;SDS011;7865;50.918;4.510;2024-01-25T02:17:30;46.27;;;8.53;;
15526;SDS011;7865;50.918;4.510;2024-01-25T02:22:32;43.57;;;8.87;;
15526;SDS011;7865;50.918;4.510;2024-01-25T02:27:34;52.23;;;10.90;;
15526;SDS011;7865;50.918;4.510;2024-01-25T02:32:42;45.93;;;9.10;;
15526;SDS011;7865;50.918;4.510;2024-01-25T02:37:44;37.13;;;8.43;;
15526;SDS011;7865;50.918;4.510;2024-01-25T02:42:46;61.23;;;9.00;;
15526;SDS011;7865;50.918;4.510;2024-01-25T02:47:48;56.53;;;8.47;;
15526;SDS011;7865;50.918;4.510;2024-01-25T02:52:51;43.77;;;7.77;;
15526;SDS011;7865;50.918;4.510;2024-01-25T02:57:53;46.60;;;8.57;;
15526;SDS011;7865;50.918;4.510;2024-01-25T03:02:55;42.77;;;8.33;;
15526;SDS011;7865;50.918;4.510;2024-01-25T03:07:56;50.40;;;7.33;;
15526;SDS011;7865;50.918;4.510;2024-01-25T03:12:58;50.37;;;7.90;;
15526;SDS011;7865;50.918;4.510;2024-01-25T03:18:01;36.80;;;8.07;;
15526;SDS011;7865;50.918;4.510;2024-01-25T03:23:03;46.50;;;8.57;;
15526;SDS011;7865;50.918;4.510;2024-01-25T03:28:05;49.00;;;8.57;;
15526;SDS011;7865;50.918;4.510;2024-01-25T03:33:08;50.07;;;8.17;;
15526;SDS011;7865;50.918;4.510;2024-01-25T03:38:10;48.53;;;8.43;;
15526;SDS011;7865;50.918;4.510;2024-01-25T03:43:12;52.20;;;7.90;;
15526;SDS011;7865;50.918;4.510;2024-01-25T03:48:22;40.47;;;8.80;;
15526;SDS011;7865;50.918;4.510;2024-01-25T03:53:24;43.77;;;8.33;;
15526;SDS011;7865;50.918;4.510;2024-01-25T03:58:26;44.17;;;7.70;;
15526;SDS011;7865;50.918;4.510;2024-01-25T04:03:28;47.40;;;7.97;;
15526;SDS011;7865;50.918;4.510;2024-01-25T04:08:31;43.23;;;8.40;;
15526;SDS011;7865;50.918;4.510;2024-01-25T04:13:32;51.93;;;7.60;;
15526;SDS011;7865;50.918;4.510;2024-01-25T04:18:34;53.83;;;9.10;;
15526;SDS011;7865;50.918;4.510;2024-01-25T04:23:36;51.13;;;9.77;;
15526;SDS011;7865;50.918;4.510;2024-01-25T04:28:38;36.57;;;7.37;;
15526;SDS011;7865;50.918;4.510;2024-01-25T04:33:40;41.63;;;7.47;;
15526;SDS011;7865;50.918;4.510;2024-01-25T04:38:48;47.53;;;7.97;;
15526;SDS011;7865;50.918;4.510;2024-01-25T04:43:50;45.23;;;7.43;;
15526;SDS011;7865;50.918;4.510;2024-01-25T04:48:52;55.53;;;11.03;;
15526;SDS011;7865;50.918;4.510;2024-01-25T04:53:55;42.43;;;7.93;;
15526;SDS011;7865;50.918;4.510;2024-01-25T04:58:56;44.77;;;8.20;;
15526;SDS011;7865;50.918;4.510;2024-01-25T05:03:58;56.47;;;8.57;;
15526;SDS011;7865;50.918;4.510;2024-01-25T05:09:00;56.30;;;9.43;;
15526;SDS011;7865;50.918;4.510;2024-01-25T05:14:02;45.53;;;9.57;;
15526;SDS011;7865;50.918;4.510;2024-01-25T05:19:04;52.73;;;8.80;;
15526;SDS011;7865;50.918;4.510;2024-01-25T05:24:06;44.33;;;8.40;;
15526;SDS011;7865;50.918;4.510;2024-01-25T05:29:09;53.83;;;8.97;;
15526;SDS011;7865;50.918;4.510;2024-01-25T05:34:11;42.87;;;7.73;;
15526;SDS011;7865;50.918;4.510;2024-01-25T05:39:13;49.27;;;7.63;;
15526;SDS011;7865;50.918;4.510;2024-01-25T05:44:15;47.90;;;8.50;;
15526;SDS011;7865;50.918;4.510;2024-01-25T05:49:16;44.83;;;9.23;;
15526;SDS011;7865;50.918;4.510;2024-01-25T05:54:19;42.17;;;8.30;;
15526;SDS011;7865;50.918;4.510;2024-01-25T05:59:20;42.13;;;8.27;;
15526;SDS011;7865;50.918;4.510;2024-01-25T06:04:22;55.43;;;9.20;;
15526;SDS011;7865;50.918;4.510;2024-01-25T06:09:24;52.20;;;9.57;;
15526;SDS011;7865;50.918;4.510;2024-01-25T06:14:26;59.70;;;10.00;;
15526;SDS011;7865;50.918;4.510;2024-01-25T06:19:28;56.70;;;10.40;;
15526;SDS011;7865;50.918;4.510;2024-01-25T06:24:30;52.60;;;9.73;;
15526;SDS011;7865;50.918;4.510;2024-01-25T06:29:32;65.50;;;11.93;;
15526;SDS011;7865;50.918;4.510;2024-01-25T06:34:34;54.27;;;8.73;;
15526;SDS011;7865;50.918;4.510;2024-01-25T06:39:36;54.97;;;9.27;;
15526;SDS011;7865;50.918;4.510;2024-01-25T06:44:38;53.13;;;8.43;;
15526;SDS011;7865;50.918;4.510;2024-01-25T06:49:40;56.77;;;9.73;;
15526;SDS011;7865;50.918;4.510;2024-01-25T06:54:42;36.83;;;8.50;;
15526;SDS011;7865;50.918;4.510;2024-01-25T06:59:43;50.30;;;7.77;;
15526;SDS011;7865;50.918;4.510;2024-01-25T07:04:46;54.53;;;8.60;;
15526;SDS011;7865;50.918;4.510;2024-01-25T07:09:49;61.13;;;9.70;;
15526;SDS011;7865;50.918;4.510;2024-01-25T07:14:51;53.50;;;10.27;;
15526;SDS011;7865;50.918;4.510;2024-01-25T07:19:52;56.93;;;9.47;;
15526;SDS011;7865;50.918;4.510;2024-01-25T07:24:54;52.07;;;12.27;;
15526;SDS011;7865;50.918;4.510;2024-01-25T07:29:56;50.87;;;9.10;;
15526;SDS011;7865;50.918;4.510;2024-01-25T07:34:58;48.70;;;10.63;;
15526;SDS011;7865;50.918;4.510;2024-01-25T07:40:01;55.77;;;11.83;;
15526;SDS011;7865;50.918;4.510;2024-01-25T07:45:05;71.00;;;13.63;;
15526;SDS011;7865;50.918;4.510;2024-01-25T07:50:08;55.97;;;10.70;;
15526;SDS011;7865;50.918;4.510;2024-01-25T07:55:10;52.97;;;11.93;;
15526;SDS011;7865;50.918;4.510;2024-01-25T08:00:12;57.80;;;13.00;;
15526;SDS011;7865;50.918;4.510;2024-01-25T08:05:14;51.27;;;11.80;;
15526;SDS011;7865;50.918;4.510;2024-01-25T08:10:17;53.87;;;12.67;;
15526;SDS011;7865;50.918;4.510;2024-01-25T08:15:19;46.73;;;13.93;;
15526;SDS011;7865;50.918;4.510;2024-01-25T08:20:20;66.33;;;14.77;;
15526;SDS011;7865;50.918;4.510;2024-01-25T08:25:22;54.40;;;14.80;;
15526;SDS011;7865;50.918;4.510;2024-01-25T08:30:25;44.93;;;14.60;;
15526;SDS011;7865;50.918;4.510;2024-01-25T08:35:27;38.10;;;13.70;;
15526;SDS011;7865;50.918;4.510;2024-01-25T08:40:29;28.53;;;12.97;;
15526;SDS011;7865;50.918;4.510;2024-01-25T08:45:31;37.10;;;13.17;;
15526;SDS011;7865;50.918;4.510;2024-01-25T08:50:33;37.80;;;12.63;;
15526;SDS011;7865;50.918;4.510;2024-01-25T08:55:36;31.40;;;13.00;;
15526;SDS011;7865;50.918;4.510;2024-01-25T09:00:38;32.00;;;12.33;;
15526;SDS011;7865;50.918;4.510;2024-01-25T09:05:40;44.90;;;15.73;;
15526;SDS011;7865;50.918;4.510;2024-01-25T09:10:46;30.53;;;14.03;;
15526;SDS011;7865;50.918;4.510;2024-01-25T09:15:48;36.03;;;13.67;;
15526;SDS011;7865;50.918;4.510;2024-01-25T09:20:50;42.17;;;14.73;;
15526;SDS011;7865;50.918;4.510;2024-01-25T09:25:53;38.53;;;12.43;;
15526;SDS011;7865;50.918;4.510;2024-01-25T09:30:54;28.30;;;11.23;;
15526;SDS011;7865;50.918;4.510;2024-01-25T09:35:57;35.00;;;14.40;;
15526;SDS011;7865;50.918;4.510;2024-01-25T09:40:58;37.27;;;14.87;;
15526;SDS011;7865;50.918;4.510;2024-01-25T09:46:03;33.30;;;14.07;;
15526;SDS011;7865;50.918;4.510;2024-01-25T09:51:07;42.50;;;16.87;;
15526;SDS011;7865;50.918;4.510;2024-01-25T09:56:10;43.23;;;16.30;;
15526;SDS011;7865;50.918;4.510;2024-01-25T10:01:14;53.43;;;19.93;;
15526;SDS011;7865;50.918;4.510;2024-01-25T10:06:17;63.80;;;20.50;;
15526;SDS011;7865;50.918;4.510;2024-01-25T10:11:20;50.23;;;18.70;;
15526;SDS011;7865;50.918;4.510;2024-01-25T10:16:22;49.73;;;20.27;;
15526;SDS011;7865;50.918;4.510;2024-01-25T10:21:24;43.57;;;19.60;;
15526;SDS011;7865;50.918;4.510;2024-01-25T10:26:26;60.63;;;22.47;;
15526;SDS011;7865;50.918;4.510;2024-01-25T10:31:30;63.67;;;20.97;;
15526;SDS011;7865;50.918;4.510;2024-01-25T10:36:34;53.53;;;20.53;;
15526;SDS011;7865;50.918;4.510;2024-01-25T10:41:36;51.27;;;18.70;;
15526;SDS011;7865;50.918;4.510;2024-01-25T10:46:39;47.00;;;17.17;;
15526;SDS011;7865;50.918;4.510;2024-01-25T10:51:43;53.97;;;18.23;;
15526;SDS011;7865;50.918;4.510;2024-01-25T10:56:46;45.67;;;16.83;;
15526;SDS011;7865;50.918;4.510;2024-01-25T11:01:49;42.83;;;16.83;;
15526;SDS011;7865;50.918;4.510;2024-01-25T11:06:51;52.83;;;16.40;;
15526;SDS011;7865;50.918;4.510;2024-01-25T11:11:53;42.00;;;15.40;;
15526;SDS011;7865;50.918;4.510;2024-01-25T11:16:56;39.47;;;14.90;;
15526;SDS011;7865;50.918;4.510;2024-01-25T11:21:57;43.17;;;14.10;;
15526;SDS011;7865;50.918;4.510;2024-01-25T11:27:05;36.13;;;14.73;;
15526;SDS011;7865;50.918;4.510;2024-01-25T11:32:07;38.13;;;14.63;;
15526;SDS011;7865;50.918;4.510;2024-01-25T11:37:10;35.27;;;13.67;;
15526;SDS011;7865;50.918;4.510;2024-01-25T11:42:12;40.07;;;13.33;;
15526;SDS011;7865;50.918;4.510;2024-01-25T11:47:14;44.60;;;14.33;;
15526;SDS011;7865;50.918;4.510;2024-01-25T11:52:16;40.40;;;11.60;;
15526;SDS011;7865;50.918;4.510;2024-01-25T11:57:18;41.83;;;11.63;;
15526;SDS011;7865;50.918;4.510;2024-01-25T12:02:20;39.47;;;13.03;;
15526;SDS011;7865;50.918;4.510;2024-01-25T12:07:22;42.07;;;10.90;;
15526;SDS011;7865;50.918;4.510;2024-01-25T12:12:25;39.73;;;11.63;;
15526;SDS011;7865;50.918;4.510;2024-01-25T12:17:27;47.77;;;20.40;;
15526;SDS011;7865;50.918;4.510;2024-01-25T12:22:30;35.90;;;12.23;;
15526;SDS011;7865;50.918;4.510;2024-01-25T12:27:37;38.70;;;11.87;;
15526;SDS011;7865;50.918;4.510;2024-01-25T12:32:42;36.67;;;11.53;;
15526;SDS011;7865;50.918;4.510;2024-01-25T12:37:43;37.03;;;12.17;;
15526;SDS011;7865;50.918;4.510;2024-01-25T12:42:45;35.80;;;14.43;;
15526;SDS011;7865;50.918;4.510;2024-01-25T12:47:47;42.17;;;14.73;;
15526;SDS011;7865;50.918;4.510;2024-01-25T12:52:49;32.67;;;14.37;;
15526;SDS011;7865;50.918;4.510;2024-01-25T12:57:53;30.37;;;14.10;;
15526;SDS011;7865;50.918;4.510;2024-01-25T13:02:56;32.40;;;11.90;;
15526;SDS011;7865;50.918;4.510;2024-01-25T13:07:59;24.07;;;10.73;;
15526;SDS011;7865;50.918;4.510;2024-01-25T13:13:03;25.57;;;9.50;;
15526;SDS011;7865;50.918;4.510;2024-01-25T13:18:05;18.67;;;7.10;;
15526;SDS011;7865;50.918;4.510;2024-01-25T13:23:09;20.77;;;10.23;;
15526;SDS011;7865;50.918;4.510;2024-01-25T13:28:10;18.70;;;7.77;;
15526;SDS011;7865;50.918;4.510;2024-01-25T13:33:12;15.07;;;7.20;;
15526;SDS011;7865;50.918;4.510;2024-01-25T13:38:14;14.43;;;6.73;;
15526;SDS011;7865;50.918;4.510;2024-01-25T13:43:17;11.60;;;6.17;;
15526;SDS011;7865;50.918;4.510;2024-01-25T13:48:19;15.33;;;6.00;;
15526;SDS011;7865;50.918;4.510;2024-01-25T13:53:21;11.90;;;6.20;;
15526;SDS011;7865;50.918;4.510;2024-01-25T13:58:23;12.27;;;6.30;;
15526;SDS011;7865;50.918;4.510;2024-01-25T14:03:25;15.27;;;6.63;;
15526;SDS011;7865;50.918;4.510;2024-01-25T14:08:27;13.00;;;7.90;;
15526;SDS011;7865;50.918;4.510;2024-01-25T14:13:29;12.07;;;7.97;;
15526;SDS011;7865;50.918;4.510;2024-01-25T14:18:35;15.27;;;9.60;;
15526;SDS011;7865;50.918;4.510;2024-01-25T14:23:39;13.13;;;10.03;;
15526;SDS011;7865;50.918;4.510;2024-01-25T14:28:41;15.40;;;11.13;;
15526;SDS011;7865;50.918;4.510;2024-01-25T14:33:43;20.87;;;13.10;;
15526;SDS011;7865;50.918;4.510;2024-01-25T14:38:47;19.07;;;13.43;;
15526;SDS011;7865;50.918;4.510;2024-01-25T14:43:49;21.10;;;13.13;;
15526;SDS011;7865;50.918;4.510;2024-01-25T14:48:51;23.27;;;16.77;;
15526;SDS011;7865;50.918;4.510;2024-01-25T14:53:53;18.57;;;12.63;;
15526;SDS011;7865;50.918;4.510;2024-01-25T14:58:54;20.63;;;13.40;;
15526;SDS011;7865;50.918;4.510;2024-01-25T15:03:56;21.77;;;13.57;;
15526;SDS011;7865;50.918;4.510;2024-01-25T15:08:59;16.87;;;11.37;;
15526;SDS011;7865;50.918;4.510;2024-01-25T15:14:01;21.23;;;14.00;;
15526;SDS011;7865;50.918;4.510;2024-01-25T15:19:03;19.13;;;13.50;;
15526;SDS011;7865;50.918;4.510;2024-01-25T15:24:05;19.17;;;12.87;;
15526;SDS011;7865;50.918;4.510;2024-01-25T15:29:07;16.73;;;13.03;;
15526;SDS011;7865;50.918;4.510;2024-01-25T15:34:09;21.90;;;13.67;;
15526;SDS011;7865;50.918;4.510;2024-01-25T15:39:11;18.80;;;13.07;;
15526;SDS011;7865;50.918;4.510;2024-01-25T15:44:13;23.27;;;13.57;;
15526;SDS011;7865;50.918;4.510;2024-01-25T15:49:14;19.37;;;12.40;;
15526;SDS011;7865;50.918;4.510;2024-01-25T15:54:17;15.20;;;10.70;;
15526;SDS011;7865;50.918;4.510;2024-01-25T15:59:19;18.80;;;10.30;;
15526;SDS011;7865;50.918;4.510;2024-01-25T16:04:20;19.37;;;11.40;;
15526;SDS011;7865;50.918;4.510;2024-01-25T16:09:22;15.60;;;10.80;;
15526;SDS011;7865;50.918;4.510;2024-01-25T16:14:24;15.37;;;10.37;;
15526;SDS011;7865;50.918;4.510;2024-01-25T16:19:26;15.53;;;9.77;;
15526;SDS011;7865;50.918;4.510;2024-01-25T16:24:28;14.93;;;11.10;;
15526;SDS011;7865;50.918;4.510;2024-01-25T16:29:30;17.93;;;11.50;;
15526;SDS011;7865;50.918;4.510;2024-01-25T16:34:32;18.73;;;11.90;;
15526;SDS011;7865;50.918;4.510;2024-01-25T16:39:35;21.20;;;13.00;;
15526;SDS011;7865;50.918;4.510;2024-01-25T16:44:37;24.57;;;14.27;;
15526;SDS011;7865;50.918;4.510;2024-01-25T16:49:38;22.50;;;12.87;;
15526;SDS011;7865;50.918;4.510;2024-01-25T16:54:40;21.50;;;12.67;;
15526;SDS011;7865;50.918;4.510;2024-01-25T16:59:43;26.73;;;13.00;;
15526;SDS011;7865;50.918;4.510;2024-01-25T17:04:45;21.63;;;13.10;;
15526;SDS011;7865;50.918;4.510;2024-01-25T17:09:47;20.57;;;13.53;;
15526;SDS011;7865;50.918;4.510;2024-01-25T17:14:49;23.23;;;14.87;;
15526;SDS011;7865;50.918;4.510;2024-01-25T17:19:51;23.50;;;15.80;;
15526;SDS011;7865;50.918;4.510;2024-01-25T17:24:54;24.13;;;15.87;;
15526;SDS011;7865;50.918;4.510;2024-01-25T17:29:56;21.27;;;14.70;;
15526;SDS011;7865;50.918;4.510;2024-01-25T17:34:58;28.57;;;16.73;;
15526;SDS011;7865;50.918;4.510;2024-01-25T17:40:01;27.03;;;17.43;;
15526;SDS011;7865;50.918;4.510;2024-01-25T17:45:03;27.83;;;18.60;;
15526;SDS011;7865;50.918;4.510;2024-01-25T17:50:05;36.70;;;21.10;;
15526;SDS011;7865;50.918;4.510;2024-01-25T17:55:08;39.80;;;21.53;;
15526;SDS011;7865;50.918;4.510;2024-01-25T18:00:10;37.07;;;21.57;;
15526;SDS011;7865;50.918;4.510;2024-01-25T18:05:12;37.10;;;21.80;;
15526;SDS011;7865;50.918;4.510;2024-01-25T18:16:20;33.70;;;20.97;;
15526;SDS011;7865;50.918;4.510;2024-01-25T18:21:22;47.33;;;31.03;;
15526;SDS011;7865;50.918;4.510;2024-01-25T18:26:26;37.43;;;25.47;;
15526;SDS011;7865;50.918;4.510;2024-01-25T18:31:29;35.33;;;23.53;;
15526;SDS011;7865;50.918;4.510;2024-01-25T18:36:30;35.77;;;19.87;;
15526;SDS011;7865;50.918;4.510;2024-01-25T18:41:32;39.87;;;25.17;;
15526;SDS011;7865;50.918;4.510;2024-01-25T19:28:06;26.30;;;18.63;;
15526;SDS011;7865;50.918;4.510;2024-01-25T19:33:08;23.60;;;16.97;;
15526;SDS011;7865;50.918;4.510;2024-01-25T19:38:10;21.23;;;14.40;;
15526;SDS011;7865;50.918;4.510;2024-01-25T19:43:12;21.53;;;13.17;;
15526;SDS011;7865;50.918;4.510;2024-01-25T19:48:13;16.93;;;10.27;;
15526;SDS011;7865;50.918;4.510;2024-01-25T19:53:15;14.63;;;10.23;;
15526;SDS011;7865;50.918;4.510;2024-01-25T19:58:18;18.00;;;10.23;;
15526;SDS011;7865;50.918;4.510;2024-01-25T20:03:22;13.13;;;9.97;;
15526;SDS011;7865;50.918;4.510;2024-01-25T20:08:24;26.53;;;20.77;;
15526;SDS011;7865;50.918;4.510;2024-01-25T20:13:28;23.90;;;18.73;;
15526;SDS011;7865;50.918;4.510;2024-01-25T20:18:33;29.03;;;14.30;;
15526;SDS011;7865;50.918;4.510;2024-01-25T20:23:36;24.23;;;16.00;;
15526;SDS011;7865;50.918;4.510;2024-01-25T20:28:40;22.50;;;14.53;;
15526;SDS011;7865;50.918;4.510;2024-01-25T20:33:43;21.93;;;13.60;;
15526;SDS011;7865;50.918;4.510;2024-01-25T20:38:46;19.07;;;11.27;;
15526;SDS011;7865;50.918;4.510;2024-01-25T20:43:48;14.57;;;10.60;;
15526;SDS011;7865;50.918;4.510;2024-01-25T20:48:52;14.50;;;10.07;;
15526;SDS011;7865;50.918;4.510;2024-01-25T20:53:54;14.77;;;9.93;;
15526;SDS011;7865;50.918;4.510;2024-01-25T20:59:05;16.57;;;10.57;;
15526;SDS011;7865;50.918;4.510;2024-01-25T21:04:08;15.17;;;10.13;;
15526;SDS011;7865;50.918;4.510;2024-01-25T21:09:17;15.85;;;9.90;;
15526;SDS011;7865;50.918;4.510;2024-01-25T21:14:19;16.10;;;9.30;;
15526;SDS011;7865;50.918;4.510;2024-01-25T21:19:23;14.70;;;9.13;;
15526;SDS011;7865;50.918;4.510;2024-01-25T21:47:47;11.20;;;8.67;;
15526;SDS011;7865;50.918;4.510;2024-01-25T21:52:49;9.40;;;8.40;;
15526;SDS011;7865;50.918;4.510;2024-01-25T21:57:50;11.17;;;8.33;;
15526;SDS011;7865;50.918;4.510;2024-01-25T22:02:57;14.87;;;7.90;;
15526;SDS011;7865;50.918;4.510;2024-01-25T22:07:59;13.10;;;7.77;;
15526;SDS011;7865;50.918;4.510;2024-01-25T22:13:01;14.90;;;9.27;;
15526;SDS011;7865;50.918;4.510;2024-01-25T22:18:03;12.37;;;8.93;;
15526;SDS011;7865;50.918;4.510;2024-01-25T22:23:05;13.90;;;8.63;;
15526;SDS011;7865;50.918;4.510;2024-01-25T22:28:07;13.13;;;8.43;;
15526;SDS011;7865;50.918;4.510;2024-01-25T22:33:09;11.37;;;8.30;;
15526;SDS011;7865;50.918;4.510;2024-01-25T22:38:11;10.73;;;9.13;;
15526;SDS011;7865;50.918;4.510;2024-01-25T22:43:13;13.50;;;9.37;;
15526;SDS011;7865;50.918;4.510;2024-01-25T22:48:15;10.70;;;9.13;;
15526;SDS011;7865;50.918;4.510;2024-01-25T22:53:19;9.23;;;8.10;;
15526;SDS011;7865;50.918;4.510;2024-01-25T23:10:06;9.60;;;8.53;;
15526;SDS011;7865;50.918;4.510;2024-01-25T23:27:49;9.20;;;7.00;;
15526;SDS011;7865;50.918;4.510;2024-01-25T23:38:40;5.90;;;5.33;;
15526;SDS011;7865;50.918;4.510;2024-01-25T23:54:55;7.67;;;5.40;;
15526;SDS011;7865;50.918;4.510;2024-01-25T23:59:58;5.73;;;4.77;;
